createdAt,value
2022-08-18T00:01:33.111Z,89.14
2022-08-18T00:04:03.538Z,89.49
2022-08-18T00:06:37.736Z,89.09
2022-08-18T00:09:08.237Z,89.19
2022-08-18T00:11:41.522Z,88.81
2022-08-18T00:14:22.456Z,88.51
2022-08-18T00:16:51.251Z,88.37
2022-08-18T00:19:17.901Z,89.01
2022-08-18T00:21:44.570Z,89.22
2022-08-18T00:24:11.137Z,89.27
2022-08-18T00:26:37.835Z,89.07
2022-08-18T00:29:04.520Z,88.86
2022-08-18T00:31:31.715Z,88.61
2022-08-18T00:33:58.732Z,88.67
2022-08-18T00:36:25.396Z,88.79
2022-08-18T00:38:52.330Z,89.24
2022-08-18T00:41:19.439Z,89.30
2022-08-18T00:43:49.250Z,88.88
2022-08-18T00:46:28.724Z,88.56
2022-08-18T00:48:55.919Z,88.90
2022-08-18T00:51:29.958Z,89.33
2022-08-18T00:54:03.253Z,89.53
2022-08-18T00:56:35.610Z,89.86
2022-08-18T00:59:14.460Z,90.21
2022-08-18T01:01:42.474Z,89.84
2022-08-18T01:04:18.334Z,89.50
2022-08-18T01:06:52.072Z,89.26
2022-08-18T01:09:19.222Z,88.95
2022-08-18T01:11:46.042Z,88.73
2022-08-18T01:14:18.382Z,88.74
2022-08-18T01:17:08.433Z,88.88
2022-08-18T01:19:53.993Z,89.08
2022-08-18T01:22:27.082Z,89.21
2022-08-18T01:25:15.681Z,89.38
2022-08-18T01:27:42.260Z,89.29
2022-08-18T01:30:12.472Z,89.53
2022-08-18T01:32:40.061Z,89.65
2022-08-18T01:35:09.767Z,89.50
2022-08-18T01:37:37.192Z,89.68
2022-08-18T01:41:22.004Z,90.12
2022-08-18T01:42:56.552Z,89.77
2022-08-18T01:45:23.190Z,89.87
2022-08-18T01:47:50.698Z,89.26
2022-08-18T01:50:18.090Z,89.31
2022-08-18T01:52:44.720Z,89.59
2022-08-18T01:55:11.270Z,89.94
2022-08-18T01:57:46.770Z,90.19
2022-08-18T02:00:15.801Z,90.21
2022-08-18T02:02:43.071Z,89.79
2022-08-18T02:05:19.836Z,89.60
2022-08-18T02:07:46.690Z,89.96
2022-08-18T02:10:16.324Z,90.17
2022-08-18T02:12:44.019Z,90.18
2022-08-18T02:15:12.115Z,89.77
2022-08-18T02:17:40.118Z,89.79
2022-08-18T02:20:08.842Z,90.13
2022-08-18T02:22:35.702Z,90.27
2022-08-18T02:25:02.367Z,90.82
2022-08-18T02:27:29.762Z,90.58
2022-08-18T02:30:00.282Z,90.30
2022-08-18T02:32:27.295Z,90.36
2022-08-18T02:34:56.089Z,90.38
2022-08-18T02:37:23.046Z,90.67
2022-08-18T02:39:49.702Z,91.61
2022-08-18T02:42:16.407Z,91.81
2022-08-18T02:44:43.431Z,91.45
2022-08-18T02:47:10.729Z,91.46
2022-08-18T02:49:37.372Z,92.26
2022-08-18T02:52:04.474Z,91.88
2022-08-18T02:54:31.106Z,91.82
2022-08-18T02:56:57.622Z,92.17
2022-08-18T02:59:27.811Z,91.99
2022-08-18T03:01:56.429Z,91.47
2022-08-18T03:04:30.441Z,91.38
2022-08-18T03:07:00.643Z,91.46
2022-08-18T03:09:28.294Z,91.83
2022-08-18T03:11:54.990Z,92.18
2022-08-18T03:14:21.567Z,92.15
2022-08-18T03:16:53.539Z,91.79
2022-08-18T03:19:23.286Z,92.01
2022-08-18T03:21:50.201Z,91.74
2022-08-18T03:24:22.718Z,91.54
2022-08-18T03:26:52.273Z,91.68
2022-08-18T03:29:19.876Z,92.10
2022-08-18T03:31:48.863Z,91.93
2022-08-18T03:34:16.035Z,91.73
2022-08-18T03:36:42.707Z,91.78
2022-08-18T03:39:11.851Z,92.81
2022-08-18T03:41:44.419Z,93.06
2022-08-18T03:44:25.164Z,92.54
2022-08-18T03:46:51.764Z,92.80
2022-08-18T03:49:20.420Z,93.41
2022-08-18T03:51:48.668Z,93.71
2022-08-18T03:54:17.484Z,93.20
2022-08-18T03:56:46.297Z,93.44
2022-08-18T03:59:19.771Z,93.68
2022-08-18T04:01:48.951Z,95.08
2022-08-18T04:04:17.358Z,95.69
2022-08-18T04:06:50.268Z,95.48
2022-08-18T04:09:18.563Z,95.99
2022-08-18T04:11:46.303Z,95.87
2022-08-18T04:14:15.789Z,95.60
2022-08-18T04:16:42.674Z,95.57
2022-08-18T04:19:10.116Z,95.51
2022-08-18T04:21:39.444Z,95.34
2022-08-18T04:24:07.504Z,95.49
2022-08-18T04:26:40.389Z,95.71
2022-08-18T04:29:08.000Z,95.55
2022-08-18T04:31:34.547Z,96.04
2022-08-18T04:34:01.686Z,96.83
2022-08-18T04:36:31.145Z,97.58
2022-08-18T04:38:59.024Z,98.29
2022-08-18T04:41:27.318Z,98.02
2022-08-18T04:43:58.397Z,98.13
2022-08-18T04:46:26.246Z,98.69
2022-08-18T04:48:58.826Z,99.44
2022-08-18T04:52:22.497Z,99.80
2022-08-18T04:54:16.174Z,100.00
2022-08-18T04:56:43.654Z,100.00
2022-08-18T04:59:14.423Z,100.00
2022-08-18T05:01:45.698Z,99.91
2022-08-18T05:04:14.620Z,99.77
2022-08-18T05:06:43.456Z,100.00
2022-08-18T05:09:11.402Z,100.00
2022-08-18T05:11:38.634Z,100.00
2022-08-18T05:14:08.778Z,100.00
2022-08-18T05:16:48.175Z,100.00
2022-08-18T05:19:19.909Z,100.00
2022-08-18T05:21:52.238Z,100.00
2022-08-18T05:24:21.455Z,100.00
2022-08-18T05:26:49.023Z,100.00
2022-08-18T05:29:18.520Z,100.00
2022-08-18T05:31:46.349Z,100.00
2022-08-18T05:34:13.023Z,100.00
2022-08-18T05:36:48.805Z,100.00
2022-08-18T05:39:24.523Z,100.00
2022-08-18T05:42:03.004Z,100.00
2022-08-18T05:44:32.971Z,100.00
2022-08-18T05:47:06.664Z,100.00
2022-08-18T05:49:36.073Z,100.00
2022-08-18T05:52:34.938Z,100.00
2022-08-18T05:55:28.942Z,100.00
2022-08-18T05:58:02.491Z,100.00
2022-08-18T06:00:30.745Z,100.00
2022-08-18T06:03:09.073Z,100.00
2022-08-18T06:05:44.818Z,100.00
2022-08-18T06:08:14.066Z,100.00
2022-08-18T06:10:46.534Z,100.00
2022-08-18T06:13:13.613Z,100.00
2022-08-18T06:15:49.823Z,100.00
2022-08-18T06:18:37.620Z,100.00
2022-08-18T06:21:41.443Z,100.00
2022-08-18T06:24:40.543Z,100.00
2022-08-18T06:27:31.161Z,100.00
2022-08-18T06:30:05.691Z,100.00
2022-08-18T06:33:10.038Z,100.00
2022-08-18T06:35:50.538Z,100.00
2022-08-18T06:38:36.847Z,100.00
2022-08-18T06:41:08.587Z,100.00
2022-08-18T06:43:38.812Z,100.00
2022-08-18T06:46:12.460Z,100.00
2022-08-18T06:48:54.994Z,100.00
2022-08-18T06:51:27.897Z,100.00
2022-08-18T06:54:20.818Z,100.00
2022-08-18T06:56:53.301Z,100.00
2022-08-18T06:59:29.708Z,100.00
2022-08-18T07:02:22.834Z,100.00
2022-08-18T07:05:19.817Z,100.00
2022-08-18T07:07:58.933Z,100.00
2022-08-18T07:10:25.662Z,100.00
2022-08-18T07:12:52.537Z,100.00
2022-08-18T07:15:24.593Z,100.00
2022-08-18T07:17:51.166Z,100.00
2022-08-18T07:20:24.418Z,100.00
2022-08-18T07:23:08.244Z,100.00
2022-08-18T07:25:41.317Z,100.00
2022-08-18T07:28:26.757Z,100.00
2022-08-18T07:31:16.337Z,100.00
2022-08-18T07:33:51.427Z,100.00
2022-08-18T07:36:21.624Z,97.08
2022-08-18T07:39:00.882Z,94.57
2022-08-18T07:41:38.156Z,92.17
2022-08-18T07:44:16.983Z,90.49
2022-08-18T07:46:52.196Z,88.40
2022-08-18T07:49:22.651Z,88.14
2022-08-18T07:52:06.401Z,86.82
2022-08-18T07:55:11.673Z,85.22
2022-08-18T07:58:15.430Z,83.05
2022-08-18T08:00:58.927Z,81.89
2022-08-18T08:03:32.071Z,82.21
2022-08-18T08:06:33.482Z,81.65
2022-08-18T08:09:36.570Z,81.67
2022-08-18T08:12:23.297Z,80.19
2022-08-18T08:14:58.252Z,80.00
2022-08-18T08:17:33.326Z,78.44
2022-08-18T08:20:01.643Z,77.41
2022-08-18T08:22:39.534Z,75.58
2022-08-18T08:25:45.025Z,76.07
2022-08-18T08:28:25.659Z,76.56
2022-08-18T08:34:11.170Z,77.79
2022-08-18T08:36:45.192Z,76.27
2022-08-18T08:39:38.382Z,73.07
2022-08-18T08:42:31.713Z,73.47
2022-08-18T08:45:05.225Z,72.51
2022-08-18T08:47:40.966Z,73.06
2022-08-18T08:50:18.268Z,74.04
2022-08-18T08:52:57.117Z,71.86
2022-08-18T08:55:34.231Z,71.51
2022-08-18T08:58:06.898Z,71.77
2022-08-18T09:00:34.051Z,70.51
2022-08-18T09:03:00.705Z,70.27
2022-08-18T09:05:51.097Z,70.80
2022-08-18T09:08:24.334Z,70.03
2022-08-18T09:11:13.558Z,70.91
2022-08-18T09:13:58.654Z,71.43
2022-08-18T09:16:44.434Z,70.78
2022-08-18T09:19:48.672Z,70.67
2022-08-18T09:22:24.204Z,70.22
2022-08-18T09:24:55.861Z,70.28
2022-08-18T09:28:08.911Z,70.57
2022-08-18T09:30:49.257Z,69.15
2022-08-18T09:33:33.551Z,69.92
2022-08-18T09:36:20.462Z,68.30
2022-08-18T09:39:18.522Z,69.55
2022-08-18T09:41:52.055Z,69.16
2022-08-18T09:44:42.881Z,69.65
2022-08-18T09:47:10.247Z,67.13
2022-08-18T09:52:37.452Z,64.77
2022-08-18T09:55:27.488Z,66.19
2022-08-18T09:58:15.673Z,64.28
2022-08-18T10:00:44.236Z,66.46
2022-08-18T10:03:17.295Z,66.90
2022-08-18T10:06:03.797Z,66.34
2022-08-18T10:08:59.215Z,66.59
2022-08-18T10:11:42.332Z,64.92
2022-08-18T10:14:09.732Z,64.60
2022-08-18T10:20:25.992Z,63.72
2022-08-18T10:22:54.506Z,63.27
2022-08-18T10:25:52.852Z,63.01
2022-08-18T10:28:50.067Z,62.77
2022-08-18T10:31:18.839Z,62.91
2022-08-18T10:34:16.578Z,63.63
2022-08-18T10:37:26.007Z,63.37
2022-08-18T10:40:13.259Z,62.35
2022-08-18T10:43:34.314Z,62.75
2022-08-18T10:46:24.251Z,62.62
2022-08-18T10:48:44.337Z,61.97
2022-08-18T10:51:24.857Z,61.09
2022-08-18T10:54:07.868Z,61.13
2022-08-18T10:56:45.548Z,61.98
2022-08-18T10:59:48.975Z,60.13
2022-08-18T11:02:45.346Z,59.30
2022-08-18T11:05:20.176Z,60.14
2022-08-18T11:07:53.482Z,60.46
2022-08-18T11:10:58.045Z,59.53
2022-08-18T11:13:33.521Z,59.44
2022-08-18T11:16:25.426Z,58.86
2022-08-18T11:19:17.129Z,59.08
2022-08-18T11:21:51.256Z,57.32
2022-08-18T11:24:24.871Z,57.21
2022-08-18T11:27:04.452Z,55.45
2022-08-18T11:29:42.854Z,55.76
2022-08-18T11:32:27.702Z,56.34
2022-08-18T11:35:01.539Z,54.62
2022-08-18T11:37:51.638Z,54.16
2022-08-18T11:41:02.174Z,54.50
2022-08-18T11:43:12.425Z,55.96
2022-08-18T11:45:52.570Z,56.05
2022-08-18T11:48:39.073Z,54.95
2022-08-18T11:51:23.419Z,54.49
2022-08-18T11:53:58.268Z,54.91
2022-08-18T11:56:32.233Z,55.64
2022-08-18T11:59:04.373Z,58.34
2022-08-18T12:01:51.356Z,56.38
2022-08-18T12:04:38.508Z,56.53
2022-08-18T12:07:08.354Z,54.16
2022-08-18T12:12:32.417Z,53.55
2022-08-18T12:15:07.954Z,54.64
2022-08-18T12:17:41.977Z,54.63
2022-08-18T12:20:11.855Z,55.64
2022-08-18T12:22:41.344Z,54.47
2022-08-18T12:25:12.733Z,56.00
2022-08-18T12:27:40.510Z,56.57
2022-08-18T12:30:16.478Z,54.91
2022-08-18T12:32:49.633Z,55.03
2022-08-18T12:35:21.672Z,53.38
2022-08-18T12:40:35.593Z,52.10
2022-08-18T12:43:02.187Z,53.54
2022-08-18T12:45:31.215Z,51.62
2022-08-18T12:47:59.692Z,53.54
2022-08-18T12:50:31.150Z,52.15
2022-08-18T12:53:02.514Z,52.43
2022-08-18T12:55:34.465Z,53.60
2022-08-18T12:58:01.766Z,52.99
2022-08-18T13:00:29.349Z,51.79
2022-08-18T13:02:57.421Z,51.29
2022-08-18T13:05:26.660Z,51.96
2022-08-18T13:07:58.327Z,52.48
2022-08-18T13:10:42.823Z,51.48
2022-08-18T13:13:12.392Z,52.14
2022-08-18T13:15:38.978Z,51.66
2022-08-18T13:18:14.419Z,52.22
2022-08-18T13:20:45.163Z,50.96
2022-08-18T13:23:11.993Z,51.16
2022-08-18T13:25:39.785Z,51.10
2022-08-18T13:28:06.736Z,50.90
2022-08-18T13:30:35.553Z,49.75
2022-08-18T13:33:05.975Z,49.46
2022-08-18T13:35:52.450Z,50.16
2022-08-18T13:38:27.563Z,49.96
2022-08-18T13:40:58.261Z,50.58
2022-08-18T13:43:32.045Z,49.18
2022-08-18T13:45:59.990Z,49.81
2022-08-18T13:48:28.396Z,49.34
2022-08-18T13:51:01.051Z,49.83
2022-08-18T13:53:30.017Z,49.87
2022-08-18T13:55:58.896Z,49.33
2022-08-18T13:58:27.138Z,49.17
2022-08-18T14:01:16.307Z,48.46
2022-08-18T14:03:49.953Z,49.15
2022-08-18T14:06:22.656Z,49.52
2022-08-18T14:08:51.435Z,49.95
2022-08-18T14:11:18.785Z,48.88
2022-08-18T14:13:45.526Z,47.85
2022-08-18T14:16:18.919Z,47.69
2022-08-18T14:19:10.413Z,48.29
2022-08-18T14:22:11.434Z,49.12
2022-08-18T14:24:58.944Z,48.87
2022-08-18T14:27:35.301Z,47.92
2022-08-18T14:30:11.500Z,48.55
2022-08-18T14:32:48.803Z,49.12
2022-08-18T14:35:33.286Z,48.66
2022-08-18T14:38:04.047Z,48.25
2022-08-18T14:40:33.424Z,48.41
2022-08-18T14:54:57.202Z,46.85
2022-08-18T14:57:23.714Z,47.40
2022-08-18T14:59:50.712Z,47.51
2022-08-18T15:02:18.847Z,47.64
2022-08-18T15:04:53.129Z,48.26
2022-08-18T15:07:25.039Z,48.32
2022-08-18T15:10:15.139Z,48.41
2022-08-18T15:12:39.479Z,48.13
2022-08-18T15:15:09.161Z,47.92
2022-08-18T15:17:38.475Z,48.19
2022-08-18T15:20:10.441Z,48.39
2022-08-18T15:23:04.101Z,48.09
2022-08-18T15:25:44.909Z,48.63
2022-08-18T15:28:20.987Z,49.06
2022-08-18T15:30:49.787Z,49.20
2022-08-18T15:33:23.582Z,49.05
2022-08-18T15:35:51.003Z,49.14
2022-08-18T15:38:19.238Z,48.59
2022-08-18T15:40:57.133Z,48.96
2022-08-18T15:43:29.008Z,49.58
2022-08-18T15:45:57.862Z,48.69
2022-08-18T15:48:26.482Z,48.93
2022-08-18T15:50:53.301Z,48.52
2022-08-18T15:53:23.346Z,49.56
2022-08-18T15:55:50.405Z,49.51
2022-08-18T15:58:22.296Z,50.02
2022-08-18T16:00:50.591Z,50.20
2022-08-18T16:03:20.475Z,48.90
2022-08-18T16:05:53.413Z,48.89
2022-08-18T16:08:25.184Z,48.46
2022-08-18T16:10:52.843Z,49.01
2022-08-18T16:13:20.270Z,49.06
2022-08-18T16:15:48.501Z,50.50
2022-08-18T16:18:17.218Z,50.59
2022-08-18T16:20:44.451Z,51.79
2022-08-18T16:23:12.465Z,51.36
2022-08-18T16:25:40.130Z,52.26
2022-08-18T16:28:07.396Z,52.21
2022-08-18T16:30:34.636Z,52.39
2022-08-18T16:33:04.097Z,52.27
2022-08-18T16:35:32.463Z,53.20
2022-08-18T16:38:04.499Z,53.74
2022-08-18T16:40:31.121Z,53.78
2022-08-18T16:43:00.053Z,53.34
2022-08-18T16:45:28.046Z,54.38
2022-08-18T16:47:55.679Z,55.60
2022-08-18T16:50:24.936Z,55.52
2022-08-18T16:52:51.980Z,56.63
2022-08-18T16:55:18.800Z,56.04
2022-08-18T16:58:03.679Z,56.00
2022-08-18T17:00:54.931Z,56.32
2022-08-18T17:03:42.126Z,57.31
2022-08-18T17:06:12.187Z,58.21
2022-08-18T17:08:40.210Z,58.30
2022-08-18T17:11:11.434Z,58.99
2022-08-18T17:13:40.099Z,58.68
2022-08-18T17:16:07.329Z,58.90
2022-08-18T17:18:36.120Z,59.27
2022-08-18T17:21:07.754Z,59.40
2022-08-18T17:23:34.659Z,59.47
2022-08-18T17:26:09.212Z,60.26
2022-08-18T17:28:43.936Z,60.54
2022-08-18T17:31:20.544Z,60.70
2022-08-18T17:33:47.082Z,60.84
2022-08-18T17:36:21.320Z,61.35
2022-08-18T17:39:03.054Z,62.00
2022-08-18T17:41:29.715Z,61.71
2022-08-18T17:44:00.830Z,62.02
2022-08-18T17:46:37.225Z,62.36
2022-08-18T17:49:12.859Z,62.84
2022-08-18T17:51:46.563Z,63.15
2022-08-18T17:54:49.536Z,63.86
2022-08-18T17:57:32.508Z,64.10
2022-08-18T18:00:06.224Z,64.95
2022-08-18T18:02:33.464Z,64.74
2022-08-18T18:05:02.134Z,65.70
2022-08-18T18:07:35.592Z,65.91
2022-08-18T18:10:08.285Z,65.96
2022-08-18T18:12:37.265Z,66.62
2022-08-18T18:15:11.811Z,66.96
2022-08-18T18:17:41.415Z,67.21
2022-08-18T18:20:32.938Z,67.37
2022-08-18T18:23:17.889Z,67.86
2022-08-18T18:25:44.462Z,67.95
2022-08-18T18:28:33.259Z,68.50
2022-08-18T18:31:26.409Z,68.81
2022-08-18T18:34:06.262Z,68.97
2022-08-18T18:36:43.121Z,68.92
2022-08-18T18:39:33.962Z,69.30
2022-08-18T18:42:18.103Z,69.61
2022-08-18T18:44:54.006Z,69.88
2022-08-18T18:47:40.187Z,70.19
2022-08-18T18:50:12.275Z,70.71
2022-08-18T18:52:57.097Z,71.18
2022-08-18T18:55:27.068Z,71.00
2022-08-18T18:58:07.027Z,71.47
2022-08-18T19:00:54.101Z,71.53
2022-08-18T19:03:43.739Z,72.04
2022-08-18T19:06:37.782Z,72.40
2022-08-18T19:09:17.450Z,72.71
2022-08-18T19:11:57.735Z,73.28
2022-08-18T19:14:59.884Z,73.26
2022-08-18T19:17:44.836Z,73.71
2022-08-18T19:20:16.127Z,74.23
2022-08-18T19:23:04.562Z,74.86
2022-08-18T19:25:50.052Z,75.16
2022-08-18T19:28:25.795Z,75.24
2022-08-18T19:30:56.612Z,75.66
2022-08-18T19:33:49.755Z,76.18
2022-08-18T19:36:21.033Z,76.04
2022-08-18T19:39:13.191Z,76.60
2022-08-18T19:41:48.263Z,76.74
2022-08-18T19:44:47.344Z,77.32
2022-08-18T19:47:44.616Z,77.42
2022-08-18T19:50:23.913Z,77.64
2022-08-18T19:52:53.216Z,77.92
2022-08-18T19:55:41.647Z,78.45
2022-08-18T19:58:20.135Z,78.50
2022-08-18T20:01:01.310Z,78.89
2022-08-18T20:03:52.498Z,78.97
2022-08-18T20:06:36.081Z,79.62
2022-08-18T20:09:50.426Z,80.42
2022-08-18T20:12:20.729Z,80.11
2022-08-18T20:15:18.640Z,80.40
2022-08-18T20:17:54.021Z,80.48
2022-08-18T20:20:22.619Z,80.37
2022-08-18T20:22:56.465Z,80.58
2022-08-18T20:25:23.603Z,81.15
2022-08-18T20:27:59.585Z,80.94
2022-08-18T20:30:50.787Z,80.83
2022-08-18T20:33:29.970Z,81.06
2022-08-18T20:36:03.948Z,81.07
2022-08-18T20:38:38.321Z,81.13
2022-08-18T20:41:30.092Z,81.89
2022-08-18T20:44:11.408Z,81.77
2022-08-18T20:46:43.442Z,82.44
2022-08-18T20:49:38.198Z,82.54
2022-08-18T20:52:29.129Z,83.32
2022-08-18T20:55:12.047Z,83.37
2022-08-18T20:57:40.309Z,83.39
2022-08-18T21:00:12.875Z,83.26
2022-08-18T21:02:46.027Z,82.89
2022-08-18T21:05:18.876Z,83.29
2022-08-18T21:08:14.222Z,83.01
2022-08-18T21:11:09.173Z,83.40
2022-08-18T21:13:41.650Z,83.77
2022-08-18T21:16:10.818Z,83.78
2022-08-18T21:18:38.447Z,83.64
2022-08-18T21:21:27.147Z,83.43
2022-08-18T21:23:55.852Z,83.86
2022-08-18T21:26:23.150Z,84.13
2022-08-18T21:28:54.543Z,83.98
2022-08-18T21:31:42.881Z,84.48
2022-08-18T21:34:28.566Z,84.51
2022-08-18T21:36:57.972Z,85.14
2022-08-18T21:39:25.291Z,85.52
2022-08-18T21:41:54.826Z,85.91
2022-08-18T21:44:34.968Z,85.94
2022-08-18T21:47:10.096Z,86.03
2022-08-18T21:49:37.759Z,86.40
2022-08-18T21:52:04.328Z,86.50
2022-08-18T21:54:34.426Z,86.12
2022-08-18T21:57:24.306Z,86.27
2022-08-18T22:00:23.019Z,86.41
2022-08-18T22:02:52.316Z,86.72
2022-08-18T22:05:57.847Z,86.53
2022-08-18T22:08:22.983Z,86.29
2022-08-18T22:12:00.451Z,85.82
2022-08-18T22:14:30.310Z,85.69
2022-08-18T22:17:27.301Z,86.26
2022-08-18T22:19:54.474Z,86.17
2022-08-18T22:22:42.222Z,86.03
2022-08-18T22:25:12.323Z,86.03
2022-08-18T22:27:40.134Z,86.54
2022-08-18T22:30:08.065Z,86.56
2022-08-18T22:32:38.295Z,86.43
2022-08-18T22:35:06.906Z,85.93
2022-08-18T22:37:48.798Z,86.10
2022-08-18T22:40:21.610Z,86.09
2022-08-18T22:42:48.613Z,86.37
2022-08-18T22:45:15.510Z,86.78
2022-08-18T22:47:42.895Z,86.57
2022-08-18T22:50:11.051Z,86.04
2022-08-18T22:52:41.103Z,85.98
2022-08-18T22:55:11.300Z,86.28
2022-08-18T22:57:39.773Z,86.48
2022-08-18T23:00:10.240Z,87.21
2022-08-18T23:02:37.136Z,87.10
2022-08-18T23:05:05.134Z,87.35
2022-08-18T23:07:32.594Z,87.54
2022-08-18T23:09:59.185Z,87.24
2022-08-18T23:12:26.269Z,87.07
2022-08-18T23:14:53.468Z,87.16
2022-08-18T23:17:23.617Z,87.64
2022-08-18T23:19:52.061Z,88.51
2022-08-18T23:22:19.415Z,89.31
2022-08-18T23:24:46.013Z,88.60
2022-08-18T23:27:12.538Z,87.95
2022-08-18T23:29:39.786Z,87.58
2022-08-18T23:32:06.968Z,87.49
2022-08-18T23:34:34.451Z,87.85
2022-08-18T23:37:03.255Z,87.92
2022-08-18T23:39:32.520Z,87.83
2022-08-18T23:42:00.761Z,87.60
2022-08-18T23:44:28.048Z,87.64
2022-08-18T23:46:59.116Z,87.99
2022-08-18T23:49:30.325Z,88.21
2022-08-18T23:51:58.252Z,88.31
2022-08-18T23:54:28.676Z,87.93
2022-08-18T23:56:55.265Z,87.79
2022-08-18T23:59:23.924Z,87.90
